KHZY

Northeast Ohio Regional Airport

Ashtabula, Ohio, USA
METAR KHZY 110253Z AUTO 21007KT 10SM OVC024 M01/M06 A3016 RMK AO2 SLP225 T10111056 58006
Observed Flight Rules
Dec-11 @ 02:53 UTC (40 minutes ago) Marginal Visual Flight Rules
Wind Visibility Clouds
210° at 7 knots 10 miles
  • Overcast at 2,400' AGL
Temperatures Readings
Current -1°C / 30°F
Dewpoint -6°C / 21°F
Humidity 69%
Altimeter 30.16" Hg
Pressure 1022.5 hPa
Elevation 276
METAR KHZY 110253Z AUTO 21007KT 10SM OVC024 M01/M06 A3016 RMK AO2 SLP225 T10111056 58006
Observed Flight Rules
Dec-11 @ 02:53 UTC
(40 minutes ago)
MVFR
Wind Visibility
210° at 7 knots 10 miles
Clouds
  • Overcast at 2,400' AGL
Temperature Dewpoint
-1°C / 30°F -6°C / 21°F
Humidity Altimeter Pressure
69% 30.16" Hg 1022.5 hPa